sensor_id;sensor_type;location;lat;lon;timestamp;P1;durP1;ratioP1;P2;durP2;ratioP2
2023;SDS011;1016;48.770;9.154;2023-05-01T00:00:07;23.83;;;7.80;;
2023;SDS011;1016;48.770;9.154;2023-05-01T00:02:33;25.20;;;6.87;;
2023;SDS011;1016;48.770;9.154;2023-05-01T00:04:59;24.70;;;7.10;;
2023;SDS011;1016;48.770;9.154;2023-05-01T00:07:26;24.63;;;7.37;;
2023;SDS011;1016;48.770;9.154;2023-05-01T00:09:54;22.97;;;7.60;;
2023;SDS011;1016;48.770;9.154;2023-05-01T00:12:23;25.43;;;7.77;;
2023;SDS011;1016;48.770;9.154;2023-05-01T00:14:49;24.73;;;7.90;;
2023;SDS011;1016;48.770;9.154;2023-05-01T00:17:15;24.97;;;7.80;;
2023;SDS011;1016;48.770;9.154;2023-05-01T00:19:41;25.00;;;8.10;;
2023;SDS011;1016;48.770;9.154;2023-05-01T00:22:06;25.37;;;7.97;;
2023;SDS011;1016;48.770;9.154;2023-05-01T00:24:32;24.70;;;8.40;;
2023;SDS011;1016;48.770;9.154;2023-05-01T00:26:58;26.40;;;8.97;;
2023;SDS011;1016;48.770;9.154;2023-05-01T00:29:23;26.40;;;9.40;;
2023;SDS011;1016;48.770;9.154;2023-05-01T00:31:49;26.20;;;9.00;;
2023;SDS011;1016;48.770;9.154;2023-05-01T00:34:14;25.23;;;9.10;;
2023;SDS011;1016;48.770;9.154;2023-05-01T00:36:40;24.90;;;8.50;;
2023;SDS011;1016;48.770;9.154;2023-05-01T00:39:05;26.27;;;9.50;;
2023;SDS011;1016;48.770;9.154;2023-05-01T00:41:34;26.60;;;8.00;;
2023;SDS011;1016;48.770;9.154;2023-05-01T00:44:00;26.67;;;8.60;;
2023;SDS011;1016;48.770;9.154;2023-05-01T00:46:26;24.23;;;8.67;;
2023;SDS011;1016;48.770;9.154;2023-05-01T00:48:53;25.00;;;8.30;;
2023;SDS011;1016;48.770;9.154;2023-05-01T00:51:19;25.10;;;8.07;;
2023;SDS011;1016;48.770;9.154;2023-05-01T00:53:46;27.00;;;9.50;;
2023;SDS011;1016;48.770;9.154;2023-05-01T00:56:12;24.00;;;8.10;;
2023;SDS011;1016;48.770;9.154;2023-05-01T00:58:39;27.40;;;8.10;;
2023;SDS011;1016;48.770;9.154;2023-05-01T01:01:04;23.07;;;7.33;;
2023;SDS011;1016;48.770;9.154;2023-05-01T01:03:32;26.93;;;8.40;;
2023;SDS011;1016;48.770;9.154;2023-05-01T01:06:14;24.57;;;7.60;;
2023;SDS011;1016;48.770;9.154;2023-05-01T01:09:11;24.13;;;8.17;;
2023;SDS011;1016;48.770;9.154;2023-05-01T01:11:52;24.33;;;8.00;;
2023;SDS011;1016;48.770;9.154;2023-05-01T01:14:43;26.10;;;7.90;;
2023;SDS011;1016;48.770;9.154;2023-05-01T01:17:30;24.10;;;8.13;;
2023;SDS011;1016;48.770;9.154;2023-05-01T01:23:07;23.80;;;7.60;;
2023;SDS011;1016;48.770;9.154;2023-05-01T01:26:02;24.27;;;7.50;;
2023;SDS011;1016;48.770;9.154;2023-05-01T01:31:58;23.83;;;7.87;;
2023;SDS011;1016;48.770;9.154;2023-05-01T01:36:59;24.53;;;8.13;;
2023;SDS011;1016;48.770;9.154;2023-05-01T01:39:29;23.90;;;7.50;;
2023;SDS011;1016;48.770;9.154;2023-05-01T01:42:14;24.90;;;8.33;;
2023;SDS011;1016;48.770;9.154;2023-05-01T01:44:48;24.93;;;8.07;;
2023;SDS011;1016;48.770;9.154;2023-05-01T01:47:16;24.60;;;7.80;;
2023;SDS011;1016;48.770;9.154;2023-05-01T01:49:46;26.30;;;7.80;;
2023;SDS011;1016;48.770;9.154;2023-05-01T01:52:15;23.50;;;7.80;;
2023;SDS011;1016;48.770;9.154;2023-05-01T01:54:44;23.70;;;8.20;;
2023;SDS011;1016;48.770;9.154;2023-05-01T01:57:15;23.00;;;7.50;;
2023;SDS011;1016;48.770;9.154;2023-05-01T01:59:42;26.10;;;7.60;;
2023;SDS011;1016;48.770;9.154;2023-05-01T02:02:09;25.53;;;8.90;;
2023;SDS011;1016;48.770;9.154;2023-05-01T02:04:35;24.67;;;8.83;;
2023;SDS011;1016;48.770;9.154;2023-05-01T02:07:03;24.63;;;8.10;;
2023;SDS011;1016;48.770;9.154;2023-05-01T02:09:31;26.43;;;9.13;;
2023;SDS011;1016;48.770;9.154;2023-05-01T02:11:58;24.67;;;8.40;;
2023;SDS011;1016;48.770;9.154;2023-05-01T02:14:26;24.93;;;8.27;;
2023;SDS011;1016;48.770;9.154;2023-05-01T02:16:52;24.77;;;8.50;;
2023;SDS011;1016;48.770;9.154;2023-05-01T02:19:20;24.90;;;8.97;;
2023;SDS011;1016;48.770;9.154;2023-05-01T02:21:46;26.10;;;8.90;;
2023;SDS011;1016;48.770;9.154;2023-05-01T02:24:13;25.33;;;8.50;;
2023;SDS011;1016;48.770;9.154;2023-05-01T02:26:42;25.77;;;8.80;;
2023;SDS011;1016;48.770;9.154;2023-05-01T02:29:13;24.50;;;8.47;;
2023;SDS011;1016;48.770;9.154;2023-05-01T02:31:39;26.13;;;7.80;;
2023;SDS011;1016;48.770;9.154;2023-05-01T02:34:04;24.43;;;7.70;;
2023;SDS011;1016;48.770;9.154;2023-05-01T02:36:30;24.93;;;8.10;;
2023;SDS011;1016;48.770;9.154;2023-05-01T02:38:57;24.27;;;8.00;;
2023;SDS011;1016;48.770;9.154;2023-05-01T02:41:23;23.37;;;7.50;;
2023;SDS011;1016;48.770;9.154;2023-05-01T02:43:52;23.40;;;7.60;;
2023;SDS011;1016;48.770;9.154;2023-05-01T02:46:22;25.50;;;8.27;;
2023;SDS011;1016;48.770;9.154;2023-05-01T02:48:50;25.23;;;7.17;;
2023;SDS011;1016;48.770;9.154;2023-05-01T02:51:17;24.03;;;7.90;;
2023;SDS011;1016;48.770;9.154;2023-05-01T02:53:44;23.30;;;6.93;;
2023;SDS011;1016;48.770;9.154;2023-05-01T02:56:10;24.90;;;7.60;;
2023;SDS011;1016;48.770;9.154;2023-05-01T02:58:36;24.13;;;8.03;;
2023;SDS011;1016;48.770;9.154;2023-05-01T03:01:02;23.47;;;7.33;;
2023;SDS011;1016;48.770;9.154;2023-05-01T03:03:28;25.40;;;8.07;;
2023;SDS011;1016;48.770;9.154;2023-05-01T03:05:53;26.00;;;8.43;;
2023;SDS011;1016;48.770;9.154;2023-05-01T03:08:19;26.50;;;8.67;;
2023;SDS011;1016;48.770;9.154;2023-05-01T03:10:44;27.00;;;8.30;;
2023;SDS011;1016;48.770;9.154;2023-05-01T03:13:10;24.90;;;7.80;;
2023;SDS011;1016;48.770;9.154;2023-05-01T03:15:36;25.80;;;9.13;;
2023;SDS011;1016;48.770;9.154;2023-05-01T03:18:02;24.73;;;8.53;;
2023;SDS011;1016;48.770;9.154;2023-05-01T03:20:28;24.07;;;7.90;;
2023;SDS011;1016;48.770;9.154;2023-05-01T03:22:54;25.63;;;8.33;;
2023;SDS011;1016;48.770;9.154;2023-05-01T03:25:20;25.60;;;8.93;;
2023;SDS011;1016;48.770;9.154;2023-05-01T03:27:46;23.70;;;8.03;;
2023;SDS011;1016;48.770;9.154;2023-05-01T03:30:11;24.20;;;8.17;;
2023;SDS011;1016;48.770;9.154;2023-05-01T03:32:37;25.13;;;8.83;;
2023;SDS011;1016;48.770;9.154;2023-05-01T03:35:02;23.70;;;8.03;;
2023;SDS011;1016;48.770;9.154;2023-05-01T03:37:28;27.20;;;9.40;;
2023;SDS011;1016;48.770;9.154;2023-05-01T03:39:54;25.40;;;8.80;;
2023;SDS011;1016;48.770;9.154;2023-05-01T03:42:19;25.73;;;8.40;;
2023;SDS011;1016;48.770;9.154;2023-05-01T03:44:45;25.47;;;8.60;;
2023;SDS011;1016;48.770;9.154;2023-05-01T03:47:10;25.80;;;8.60;;
2023;SDS011;1016;48.770;9.154;2023-05-01T03:49:36;25.77;;;8.70;;
2023;SDS011;1016;48.770;9.154;2023-05-01T03:52:01;24.43;;;8.30;;
2023;SDS011;1016;48.770;9.154;2023-05-01T03:54:27;24.57;;;8.23;;
2023;SDS011;1016;48.770;9.154;2023-05-01T03:56:52;23.80;;;8.27;;
2023;SDS011;1016;48.770;9.154;2023-05-01T03:59:18;23.60;;;7.03;;
2023;SDS011;1016;48.770;9.154;2023-05-01T04:01:43;26.00;;;8.20;;
2023;SDS011;1016;48.770;9.154;2023-05-01T04:04:09;28.40;;;9.30;;
2023;SDS011;1016;48.770;9.154;2023-05-01T04:06:35;25.30;;;8.00;;
2023;SDS011;1016;48.770;9.154;2023-05-01T04:09:01;25.43;;;8.33;;
2023;SDS011;1016;48.770;9.154;2023-05-01T04:11:27;24.20;;;7.93;;
2023;SDS011;1016;48.770;9.154;2023-05-01T04:13:52;25.77;;;8.03;;
2023;SDS011;1016;48.770;9.154;2023-05-01T04:16:18;25.30;;;8.80;;
2023;SDS011;1016;48.770;9.154;2023-05-01T04:18:43;25.70;;;7.93;;
2023;SDS011;1016;48.770;9.154;2023-05-01T04:21:09;24.27;;;7.77;;
2023;SDS011;1016;48.770;9.154;2023-05-01T04:23:34;24.20;;;8.00;;
2023;SDS011;1016;48.770;9.154;2023-05-01T04:26:00;24.33;;;8.00;;
2023;SDS011;1016;48.770;9.154;2023-05-01T04:28:25;24.00;;;7.83;;
2023;SDS011;1016;48.770;9.154;2023-05-01T04:30:51;24.20;;;8.03;;
2023;SDS011;1016;48.770;9.154;2023-05-01T04:33:17;25.63;;;8.90;;
2023;SDS011;1016;48.770;9.154;2023-05-01T04:35:42;25.07;;;9.00;;
2023;SDS011;1016;48.770;9.154;2023-05-01T04:38:08;24.13;;;8.33;;
2023;SDS011;1016;48.770;9.154;2023-05-01T04:40:34;24.20;;;8.17;;
2023;SDS011;1016;48.770;9.154;2023-05-01T04:43:00;23.37;;;8.20;;
2023;SDS011;1016;48.770;9.154;2023-05-01T04:45:26;27.03;;;8.90;;
2023;SDS011;1016;48.770;9.154;2023-05-01T04:47:51;26.47;;;7.77;;
2023;SDS011;1016;48.770;9.154;2023-05-01T04:50:17;25.40;;;8.23;;
2023;SDS011;1016;48.770;9.154;2023-05-01T04:52:42;25.10;;;8.20;;
2023;SDS011;1016;48.770;9.154;2023-05-01T04:55:08;23.80;;;7.17;;
2023;SDS011;1016;48.770;9.154;2023-05-01T04:57:34;24.50;;;7.97;;
2023;SDS011;1016;48.770;9.154;2023-05-01T05:00:00;25.30;;;8.20;;
2023;SDS011;1016;48.770;9.154;2023-05-01T05:02:25;25.47;;;8.47;;
2023;SDS011;1016;48.770;9.154;2023-05-01T05:04:51;25.40;;;7.83;;
2023;SDS011;1016;48.770;9.154;2023-05-01T05:07:20;24.47;;;8.53;;
2023;SDS011;1016;48.770;9.154;2023-05-01T05:09:46;24.80;;;8.10;;
2023;SDS011;1016;48.770;9.154;2023-05-01T05:12:11;24.97;;;8.37;;
2023;SDS011;1016;48.770;9.154;2023-05-01T05:14:38;24.53;;;8.50;;
2023;SDS011;1016;48.770;9.154;2023-05-01T05:17:04;24.60;;;8.27;;
2023;SDS011;1016;48.770;9.154;2023-05-01T05:19:30;26.23;;;8.30;;
2023;SDS011;1016;48.770;9.154;2023-05-01T05:21:56;24.47;;;8.43;;
2023;SDS011;1016;48.770;9.154;2023-05-01T05:24:21;24.93;;;8.63;;
2023;SDS011;1016;48.770;9.154;2023-05-01T05:26:47;26.23;;;8.50;;
2023;SDS011;1016;48.770;9.154;2023-05-01T05:29:13;24.30;;;7.87;;
2023;SDS011;1016;48.770;9.154;2023-05-01T05:31:39;28.60;;;8.40;;
2023;SDS011;1016;48.770;9.154;2023-05-01T05:34:04;24.83;;;8.60;;
2023;SDS011;1016;48.770;9.154;2023-05-01T05:36:30;24.47;;;8.40;;
2023;SDS011;1016;48.770;9.154;2023-05-01T05:38:55;23.80;;;7.77;;
2023;SDS011;1016;48.770;9.154;2023-05-01T05:41:20;25.43;;;8.30;;
2023;SDS011;1016;48.770;9.154;2023-05-01T05:43:46;25.00;;;8.40;;
2023;SDS011;1016;48.770;9.154;2023-05-01T05:46:12;24.87;;;8.60;;
2023;SDS011;1016;48.770;9.154;2023-05-01T05:48:37;25.40;;;8.60;;
2023;SDS011;1016;48.770;9.154;2023-05-01T05:51:03;24.43;;;8.63;;
2023;SDS011;1016;48.770;9.154;2023-05-01T05:53:28;23.80;;;7.80;;
2023;SDS011;1016;48.770;9.154;2023-05-01T05:55:54;24.57;;;7.27;;
2023;SDS011;1016;48.770;9.154;2023-05-01T05:58:20;25.27;;;7.90;;
2023;SDS011;1016;48.770;9.154;2023-05-01T06:00:46;25.23;;;7.83;;
2023;SDS011;1016;48.770;9.154;2023-05-01T06:03:12;25.50;;;8.23;;
2023;SDS011;1016;48.770;9.154;2023-05-01T06:05:38;26.10;;;7.33;;
2023;SDS011;1016;48.770;9.154;2023-05-01T06:08:04;24.97;;;7.80;;
2023;SDS011;1016;48.770;9.154;2023-05-01T06:10:29;24.20;;;7.77;;
2023;SDS011;1016;48.770;9.154;2023-05-01T06:12:55;24.10;;;8.37;;
2023;SDS011;1016;48.770;9.154;2023-05-01T06:15:20;22.83;;;7.83;;
2023;SDS011;1016;48.770;9.154;2023-05-01T06:17:46;24.47;;;8.20;;
2023;SDS011;1016;48.770;9.154;2023-05-01T06:20:11;24.27;;;7.77;;
2023;SDS011;1016;48.770;9.154;2023-05-01T06:22:38;23.83;;;8.47;;
2023;SDS011;1016;48.770;9.154;2023-05-01T06:25:03;24.67;;;8.30;;
2023;SDS011;1016;48.770;9.154;2023-05-01T06:27:30;23.20;;;7.80;;
2023;SDS011;1016;48.770;9.154;2023-05-01T06:29:56;24.77;;;8.00;;
2023;SDS011;1016;48.770;9.154;2023-05-01T06:32:21;24.00;;;8.03;;
2023;SDS011;1016;48.770;9.154;2023-05-01T06:34:47;25.17;;;8.50;;
2023;SDS011;1016;48.770;9.154;2023-05-01T06:37:13;24.93;;;8.70;;
2023;SDS011;1016;48.770;9.154;2023-05-01T06:39:38;23.57;;;7.90;;
2023;SDS011;1016;48.770;9.154;2023-05-01T06:42:04;23.40;;;7.47;;
2023;SDS011;1016;48.770;9.154;2023-05-01T06:44:29;23.60;;;7.57;;
2023;SDS011;1016;48.770;9.154;2023-05-01T06:46:55;23.70;;;6.80;;
2023;SDS011;1016;48.770;9.154;2023-05-01T06:49:21;24.00;;;7.20;;
2023;SDS011;1016;48.770;9.154;2023-05-01T06:51:47;23.30;;;6.40;;
2023;SDS011;1016;48.770;9.154;2023-05-01T06:54:12;24.93;;;6.70;;
2023;SDS011;1016;48.770;9.154;2023-05-01T06:56:38;24.50;;;6.67;;
2023;SDS011;1016;48.770;9.154;2023-05-01T06:59:03;24.20;;;6.50;;
2023;SDS011;1016;48.770;9.154;2023-05-01T07:01:29;23.50;;;6.40;;
2023;SDS011;1016;48.770;9.154;2023-05-01T07:03:55;22.73;;;6.37;;
2023;SDS011;1016;48.770;9.154;2023-05-01T07:06:21;22.43;;;6.60;;
2023;SDS011;1016;48.770;9.154;2023-05-01T07:08:46;24.40;;;6.50;;
2023;SDS011;1016;48.770;9.154;2023-05-01T07:11:12;23.53;;;6.23;;
2023;SDS011;1016;48.770;9.154;2023-05-01T07:13:38;24.50;;;7.60;;
2023;SDS011;1016;48.770;9.154;2023-05-01T07:16:04;22.97;;;6.80;;
2023;SDS011;1016;48.770;9.154;2023-05-01T07:18:29;22.37;;;6.33;;
2023;SDS011;1016;48.770;9.154;2023-05-01T07:20:55;25.70;;;6.67;;
2023;SDS011;1016;48.770;9.154;2023-05-01T07:23:21;22.60;;;6.50;;
2023;SDS011;1016;48.770;9.154;2023-05-01T07:25:47;23.43;;;6.57;;
2023;SDS011;1016;48.770;9.154;2023-05-01T07:28:13;23.20;;;6.90;;
2023;SDS011;1016;48.770;9.154;2023-05-01T07:30:38;24.30;;;7.33;;
2023;SDS011;1016;48.770;9.154;2023-05-01T07:33:04;22.40;;;6.57;;
2023;SDS011;1016;48.770;9.154;2023-05-01T07:35:30;23.80;;;7.10;;
2023;SDS011;1016;48.770;9.154;2023-05-01T07:37:56;23.50;;;6.67;;
2023;SDS011;1016;48.770;9.154;2023-05-01T07:40:22;25.47;;;6.97;;
2023;SDS011;1016;48.770;9.154;2023-05-01T07:42:47;22.30;;;6.27;;
2023;SDS011;1016;48.770;9.154;2023-05-01T07:45:13;24.87;;;7.20;;
2023;SDS011;1016;48.770;9.154;2023-05-01T07:47:39;22.80;;;6.37;;
2023;SDS011;1016;48.770;9.154;2023-05-01T07:50:04;24.10;;;6.53;;
2023;SDS011;1016;48.770;9.154;2023-05-01T07:52:34;22.57;;;6.00;;
2023;SDS011;1016;48.770;9.154;2023-05-01T07:55:00;23.70;;;6.87;;
2023;SDS011;1016;48.770;9.154;2023-05-01T07:57:26;22.97;;;6.67;;
2023;SDS011;1016;48.770;9.154;2023-05-01T07:59:52;22.40;;;6.63;;
2023;SDS011;1016;48.770;9.154;2023-05-01T08:02:19;25.80;;;6.63;;
2023;SDS011;1016;48.770;9.154;2023-05-01T08:04:45;24.43;;;7.73;;
2023;SDS011;1016;48.770;9.154;2023-05-01T08:07:12;23.70;;;7.77;;
2023;SDS011;1016;48.770;9.154;2023-05-01T08:09:37;22.67;;;6.90;;
2023;SDS011;1016;48.770;9.154;2023-05-01T08:12:03;24.83;;;7.00;;
2023;SDS011;1016;48.770;9.154;2023-05-01T08:14:29;23.43;;;7.10;;
2023;SDS011;1016;48.770;9.154;2023-05-01T08:16:55;23.40;;;7.40;;
2023;SDS011;1016;48.770;9.154;2023-05-01T08:19:20;25.07;;;7.53;;
2023;SDS011;1016;48.770;9.154;2023-05-01T08:21:47;24.97;;;7.70;;
2023;SDS011;1016;48.770;9.154;2023-05-01T08:24:12;22.80;;;6.70;;
2023;SDS011;1016;48.770;9.154;2023-05-01T08:26:38;25.30;;;6.73;;
2023;SDS011;1016;48.770;9.154;2023-05-01T08:29:03;24.60;;;7.13;;
2023;SDS011;1016;48.770;9.154;2023-05-01T08:31:29;23.23;;;6.90;;
2023;SDS011;1016;48.770;9.154;2023-05-01T08:33:55;23.83;;;7.50;;
2023;SDS011;1016;48.770;9.154;2023-05-01T08:36:20;23.87;;;7.63;;
2023;SDS011;1016;48.770;9.154;2023-05-01T08:38:46;23.47;;;6.87;;
2023;SDS011;1016;48.770;9.154;2023-05-01T08:41:15;23.07;;;6.47;;
2023;SDS011;1016;48.770;9.154;2023-05-01T08:43:44;23.40;;;7.00;;
2023;SDS011;1016;48.770;9.154;2023-05-01T08:46:10;24.53;;;7.13;;
2023;SDS011;1016;48.770;9.154;2023-05-01T08:48:39;22.97;;;6.80;;
2023;SDS011;1016;48.770;9.154;2023-05-01T08:51:07;27.67;;;7.57;;
2023;SDS011;1016;48.770;9.154;2023-05-01T08:53:35;24.00;;;6.93;;
2023;SDS011;1016;48.770;9.154;2023-05-01T08:56:04;22.47;;;6.30;;
2023;SDS011;1016;48.770;9.154;2023-05-01T08:58:31;22.20;;;5.90;;
2023;SDS011;1016;48.770;9.154;2023-05-01T09:00:59;24.93;;;6.33;;
2023;SDS011;1016;48.770;9.154;2023-05-01T09:03:27;23.20;;;6.50;;
2023;SDS011;1016;48.770;9.154;2023-05-01T09:05:55;22.90;;;6.40;;
2023;SDS011;1016;48.770;9.154;2023-05-01T09:08:22;24.17;;;6.27;;
2023;SDS011;1016;48.770;9.154;2023-05-01T09:10:47;23.90;;;6.03;;
2023;SDS011;1016;48.770;9.154;2023-05-01T09:13:15;22.57;;;6.07;;
2023;SDS011;1016;48.770;9.154;2023-05-01T09:15:41;22.80;;;5.73;;
2023;SDS011;1016;48.770;9.154;2023-05-01T09:18:07;23.97;;;6.00;;
2023;SDS011;1016;48.770;9.154;2023-05-01T09:20:32;22.40;;;5.53;;
2023;SDS011;1016;48.770;9.154;2023-05-01T09:23:01;24.50;;;5.60;;
2023;SDS011;1016;48.770;9.154;2023-05-01T09:25:27;23.50;;;6.40;;
2023;SDS011;1016;48.770;9.154;2023-05-01T09:27:53;22.80;;;5.63;;
2023;SDS011;1016;48.770;9.154;2023-05-01T09:30:32;22.43;;;5.00;;
2023;SDS011;1016;48.770;9.154;2023-05-01T09:33:17;24.97;;;6.47;;
2023;SDS011;1016;48.770;9.154;2023-05-01T09:35:46;22.40;;;5.73;;
2023;SDS011;1016;48.770;9.154;2023-05-01T09:38:23;22.07;;;5.47;;
2023;SDS011;1016;48.770;9.154;2023-05-01T09:40:50;22.60;;;5.77;;
2023;SDS011;1016;48.770;9.154;2023-05-01T09:43:27;23.10;;;5.90;;
2023;SDS011;1016;48.770;9.154;2023-05-01T09:46:03;25.60;;;6.67;;
2023;SDS011;1016;48.770;9.154;2023-05-01T09:48:31;23.10;;;6.50;;
2023;SDS011;1016;48.770;9.154;2023-05-01T09:50:57;23.20;;;7.00;;
2023;SDS011;1016;48.770;9.154;2023-05-01T09:53:32;24.67;;;6.37;;
2023;SDS011;1016;48.770;9.154;2023-05-01T09:56:02;24.63;;;6.87;;
2023;SDS011;1016;48.770;9.154;2023-05-01T09:58:28;27.33;;;8.60;;
2023;SDS011;1016;48.770;9.154;2023-05-01T10:00:53;24.90;;;7.63;;
2023;SDS011;1016;48.770;9.154;2023-05-01T10:03:19;24.27;;;8.10;;
2023;SDS011;1016;48.770;9.154;2023-05-01T10:05:45;26.77;;;7.40;;
2023;SDS011;1016;48.770;9.154;2023-05-01T10:08:10;25.17;;;8.13;;
2023;SDS011;1016;48.770;9.154;2023-05-01T10:10:39;26.10;;;7.83;;
2023;SDS011;1016;48.770;9.154;2023-05-01T10:13:12;24.07;;;7.43;;
2023;SDS011;1016;48.770;9.154;2023-05-01T10:15:39;25.87;;;7.90;;
2023;SDS011;1016;48.770;9.154;2023-05-01T10:18:04;24.27;;;7.20;;
2023;SDS011;1016;48.770;9.154;2023-05-01T10:20:33;23.50;;;7.70;;
2023;SDS011;1016;48.770;9.154;2023-05-01T10:23:00;25.17;;;7.57;;
2023;SDS011;1016;48.770;9.154;2023-05-01T10:25:27;29.07;;;7.93;;
2023;SDS011;1016;48.770;9.154;2023-05-01T10:27:53;25.37;;;8.20;;
2023;SDS011;1016;48.770;9.154;2023-05-01T10:30:21;25.13;;;8.17;;
2023;SDS011;1016;48.770;9.154;2023-05-01T10:32:46;23.90;;;7.20;;
2023;SDS011;1016;48.770;9.154;2023-05-01T10:35:23;25.20;;;8.20;;
2023;SDS011;1016;48.770;9.154;2023-05-01T10:37:57;24.57;;;7.77;;
2023;SDS011;1016;48.770;9.154;2023-05-01T10:45:52;24.07;;;7.13;;
2023;SDS011;1016;48.770;9.154;2023-05-01T10:51:13;23.90;;;7.43;;
2023;SDS011;1016;48.770;9.154;2023-05-01T10:53:43;24.50;;;7.67;;
2023;SDS011;1016;48.770;9.154;2023-05-01T11:01:26;25.13;;;7.17;;
2023;SDS011;1016;48.770;9.154;2023-05-01T11:03:53;24.10;;;7.80;;
2023;SDS011;1016;48.770;9.154;2023-05-01T11:06:19;23.63;;;7.90;;
2023;SDS011;1016;48.770;9.154;2023-05-01T11:08:44;27.80;;;8.27;;
2023;SDS011;1016;48.770;9.154;2023-05-01T11:13:58;25.67;;;8.90;;
2023;SDS011;1016;48.770;9.154;2023-05-01T11:19:08;23.83;;;7.87;;
2023;SDS011;1016;48.770;9.154;2023-05-01T11:21:35;25.83;;;8.27;;
2023;SDS011;1016;48.770;9.154;2023-05-01T11:24:03;25.40;;;7.93;;
2023;SDS011;1016;48.770;9.154;2023-05-01T11:26:29;26.43;;;8.00;;
2023;SDS011;1016;48.770;9.154;2023-05-01T11:28:57;26.20;;;8.60;;
2023;SDS011;1016;48.770;9.154;2023-05-01T11:31:25;25.23;;;7.90;;
2023;SDS011;1016;48.770;9.154;2023-05-01T11:33:51;26.00;;;8.40;;
2023;SDS011;1016;48.770;9.154;2023-05-01T11:36:19;25.60;;;8.00;;
2023;SDS011;1016;48.770;9.154;2023-05-01T11:38:52;24.87;;;8.63;;
2023;SDS011;1016;48.770;9.154;2023-05-01T11:41:20;25.03;;;8.60;;
2023;SDS011;1016;48.770;9.154;2023-05-01T11:46:22;23.47;;;7.53;;
2023;SDS011;1016;48.770;9.154;2023-05-01T11:48:51;24.50;;;8.63;;
2023;SDS011;1016;48.770;9.154;2023-05-01T11:51:21;24.30;;;8.00;;
2023;SDS011;1016;48.770;9.154;2023-05-01T11:53:57;26.10;;;7.90;;
2023;SDS011;1016;48.770;9.154;2023-05-01T11:56:30;23.40;;;7.70;;
2023;SDS011;1016;48.770;9.154;2023-05-01T11:58:57;24.40;;;7.57;;
2023;SDS011;1016;48.770;9.154;2023-05-01T12:01:33;24.73;;;8.43;;
2023;SDS011;1016;48.770;9.154;2023-05-01T12:04:00;25.33;;;8.37;;
2023;SDS011;1016;48.770;9.154;2023-05-01T12:06:36;24.70;;;7.63;;
2023;SDS011;1016;48.770;9.154;2023-05-01T12:09:07;25.80;;;8.73;;
2023;SDS011;1016;48.770;9.154;2023-05-01T12:11:34;25.63;;;8.60;;
2023;SDS011;1016;48.770;9.154;2023-05-01T12:14:01;25.47;;;7.80;;
2023;SDS011;1016;48.770;9.154;2023-05-01T12:16:27;25.17;;;8.00;;
2023;SDS011;1016;48.770;9.154;2023-05-01T12:18:54;25.00;;;8.33;;
2023;SDS011;1016;48.770;9.154;2023-05-01T12:21:19;27.50;;;8.23;;
2023;SDS011;1016;48.770;9.154;2023-05-01T12:23:45;25.00;;;8.70;;
2023;SDS011;1016;48.770;9.154;2023-05-01T12:26:14;24.37;;;8.20;;
2023;SDS011;1016;48.770;9.154;2023-05-01T12:28:57;25.07;;;7.97;;
2023;SDS011;1016;48.770;9.154;2023-05-01T12:31:27;24.10;;;7.63;;
2023;SDS011;1016;48.770;9.154;2023-05-01T12:33:57;24.90;;;7.80;;
2023;SDS011;1016;48.770;9.154;2023-05-01T12:36:24;26.77;;;7.90;;
2023;SDS011;1016;48.770;9.154;2023-05-01T12:39:02;24.40;;;7.93;;
2023;SDS011;1016;48.770;9.154;2023-05-01T12:44:00;26.13;;;10.07;;
2023;SDS011;1016;48.770;9.154;2023-05-01T12:46:25;26.30;;;9.70;;
2023;SDS011;1016;48.770;9.154;2023-05-01T12:48:51;23.93;;;7.80;;
2023;SDS011;1016;48.770;9.154;2023-05-01T12:51:18;24.57;;;7.93;;
2023;SDS011;1016;48.770;9.154;2023-05-01T12:53:44;24.00;;;7.93;;
2023;SDS011;1016;48.770;9.154;2023-05-01T12:56:19;23.17;;;7.30;;
2023;SDS011;1016;48.770;9.154;2023-05-01T12:58:49;23.43;;;6.77;;
2023;SDS011;1016;48.770;9.154;2023-05-01T13:01:26;24.33;;;7.13;;
2023;SDS011;1016;48.770;9.154;2023-05-01T13:03:53;23.57;;;7.20;;
2023;SDS011;1016;48.770;9.154;2023-05-01T13:06:21;23.70;;;7.40;;
2023;SDS011;1016;48.770;9.154;2023-05-01T13:08:59;24.83;;;7.60;;
2023;SDS011;1016;48.770;9.154;2023-05-01T13:11:34;23.67;;;7.63;;
2023;SDS011;1016;48.770;9.154;2023-05-01T13:14:05;23.77;;;7.47;;
2023;SDS011;1016;48.770;9.154;2023-05-01T13:16:32;23.10;;;6.63;;
2023;SDS011;1016;48.770;9.154;2023-05-01T13:18:58;24.17;;;7.27;;
2023;SDS011;1016;48.770;9.154;2023-05-01T13:21:24;22.70;;;6.53;;
2023;SDS011;1016;48.770;9.154;2023-05-01T13:26:17;25.77;;;8.37;;
2023;SDS011;1016;48.770;9.154;2023-05-01T13:28:48;22.90;;;7.40;;
2023;SDS011;1016;48.770;9.154;2023-05-01T13:31:14;23.60;;;7.67;;
2023;SDS011;1016;48.770;9.154;2023-05-01T13:33:40;23.60;;;8.13;;
2023;SDS011;1016;48.770;9.154;2023-05-01T13:36:08;23.60;;;7.70;;
2023;SDS011;1016;48.770;9.154;2023-05-01T13:38:40;23.47;;;7.67;;
2023;SDS011;1016;48.770;9.154;2023-05-01T13:41:15;23.27;;;7.13;;
2023;SDS011;1016;48.770;9.154;2023-05-01T13:43:44;25.53;;;7.63;;
2023;SDS011;1016;48.770;9.154;2023-05-01T13:46:14;27.37;;;8.90;;
2023;SDS011;1016;48.770;9.154;2023-05-01T13:48:41;23.57;;;7.60;;
2023;SDS011;1016;48.770;9.154;2023-05-01T13:51:08;22.70;;;7.03;;
2023;SDS011;1016;48.770;9.154;2023-05-01T13:53:34;26.97;;;7.87;;
2023;SDS011;1016;48.770;9.154;2023-05-01T13:56:04;22.57;;;7.23;;
2023;SDS011;1016;48.770;9.154;2023-05-01T13:58:33;24.33;;;8.17;;
2023;SDS011;1016;48.770;9.154;2023-05-01T14:00:58;26.77;;;8.33;;
2023;SDS011;1016;48.770;9.154;2023-05-01T14:03:24;26.43;;;7.57;;
2023;SDS011;1016;48.770;9.154;2023-05-01T14:05:50;24.47;;;7.60;;
2023;SDS011;1016;48.770;9.154;2023-05-01T14:08:18;23.87;;;8.37;;
2023;SDS011;1016;48.770;9.154;2023-05-01T14:10:45;25.93;;;9.73;;
2023;SDS011;1016;48.770;9.154;2023-05-01T14:13:10;26.50;;;9.50;;
2023;SDS011;1016;48.770;9.154;2023-05-01T14:15:37;25.57;;;10.20;;
2023;SDS011;1016;48.770;9.154;2023-05-01T14:18:07;25.00;;;9.40;;
2023;SDS011;1016;48.770;9.154;2023-05-01T14:20:35;25.10;;;9.13;;
2023;SDS011;1016;48.770;9.154;2023-05-01T14:23:00;26.83;;;9.23;;
2023;SDS011;1016;48.770;9.154;2023-05-01T14:27:54;23.03;;;5.17;;
2023;SDS011;1016;48.770;9.154;2023-05-01T14:32:52;22.20;;;4.80;;
2023;SDS011;1016;48.770;9.154;2023-05-01T14:35:21;23.37;;;5.73;;
2023;SDS011;1016;48.770;9.154;2023-05-01T14:37:47;22.57;;;5.33;;
2023;SDS011;1016;48.770;9.154;2023-05-01T14:40:13;22.50;;;5.10;;
2023;SDS011;1016;48.770;9.154;2023-05-01T14:42:41;23.80;;;5.80;;
2023;SDS011;1016;48.770;9.154;2023-05-01T14:45:10;22.97;;;5.93;;
2023;SDS011;1016;48.770;9.154;2023-05-01T14:47:38;23.80;;;5.67;;
2023;SDS011;1016;48.770;9.154;2023-05-01T14:50:07;20.90;;;4.13;;
2023;SDS011;1016;48.770;9.154;2023-05-01T14:52:36;21.43;;;4.87;;
2023;SDS011;1016;48.770;9.154;2023-05-01T14:55:03;22.57;;;4.10;;
2023;SDS011;1016;48.770;9.154;2023-05-01T14:57:29;22.60;;;4.40;;
2023;SDS011;1016;48.770;9.154;2023-05-01T14:59:54;22.17;;;4.97;;
2023;SDS011;1016;48.770;9.154;2023-05-01T15:02:20;24.47;;;5.07;;
2023;SDS011;1016;48.770;9.154;2023-05-01T15:04:46;21.37;;;4.87;;
2023;SDS011;1016;48.770;9.154;2023-05-01T15:07:11;23.23;;;5.73;;
2023;SDS011;1016;48.770;9.154;2023-05-01T15:09:40;22.20;;;5.30;;
2023;SDS011;1016;48.770;9.154;2023-05-01T15:12:06;23.73;;;5.47;;
2023;SDS011;1016;48.770;9.154;2023-05-01T15:14:33;22.40;;;5.00;;
2023;SDS011;1016;48.770;9.154;2023-05-01T15:16:59;22.93;;;5.60;;
2023;SDS011;1016;48.770;9.154;2023-05-01T15:19:24;22.10;;;5.57;;
2023;SDS011;1016;48.770;9.154;2023-05-01T15:21:50;25.07;;;8.50;;
2023;SDS011;1016;48.770;9.154;2023-05-01T15:24:16;25.80;;;9.57;;
2023;SDS011;1016;48.770;9.154;2023-05-01T15:26:43;28.70;;;10.73;;
2023;SDS011;1016;48.770;9.154;2023-05-01T15:29:09;27.80;;;11.60;;
2023;SDS011;1016;48.770;9.154;2023-05-01T15:31:35;29.00;;;11.43;;
2023;SDS011;1016;48.770;9.154;2023-05-01T15:34:00;27.50;;;10.40;;
2023;SDS011;1016;48.770;9.154;2023-05-01T15:36:26;24.50;;;9.90;;
2023;SDS011;1016;48.770;9.154;2023-05-01T15:38:52;24.80;;;9.67;;
2023;SDS011;1016;48.770;9.154;2023-05-01T15:41:17;24.00;;;8.00;;